createdAt,value
2022-08-07T00:00:36.456Z,54.25
2022-08-07T00:03:08.580Z,53.95
2022-08-07T00:05:36.297Z,53.63
2022-08-07T00:08:04.865Z,54.02
2022-08-07T00:10:32.144Z,54.15
2022-08-07T00:13:09.587Z,53.60
2022-08-07T00:15:46.780Z,53.55
2022-08-07T00:18:28.466Z,54.06
2022-08-07T00:21:01.838Z,54.18
2022-08-07T00:23:31.801Z,53.92
2022-08-07T00:26:13.064Z,53.72
2022-08-07T00:28:55.338Z,53.57
2022-08-07T00:31:22.355Z,54.10
2022-08-07T00:33:48.939Z,54.18
2022-08-07T00:36:16.955Z,54.02
2022-08-07T00:38:43.825Z,54.47
2022-08-07T00:41:14.914Z,54.24
2022-08-07T00:44:01.847Z,54.13
2022-08-07T00:46:30.228Z,53.63
2022-08-07T00:49:02.142Z,53.54
2022-08-07T00:51:56.938Z,53.75
2022-08-07T00:54:19.711Z,53.50
2022-08-07T00:56:49.555Z,53.86
2022-08-07T00:59:17.491Z,53.77
2022-08-07T01:01:48.528Z,53.58
2022-08-07T01:04:24.703Z,53.92
2022-08-07T01:06:51.568Z,53.48
2022-08-07T01:10:03.869Z,53.70
2022-08-07T01:12:28.304Z,53.78
2022-08-07T01:15:01.197Z,53.49
2022-08-07T01:17:31.020Z,53.41
2022-08-07T01:20:04.852Z,53.31
2022-08-07T01:22:33.298Z,53.55
2022-08-07T01:25:00.926Z,53.53
2022-08-07T01:27:32.272Z,53.15
2022-08-07T01:30:00.482Z,53.72
2022-08-07T01:32:28.199Z,54.17
2022-08-07T01:34:56.207Z,54.17
2022-08-07T01:37:24.700Z,54.05
2022-08-07T01:39:52.272Z,53.61
2022-08-07T01:42:40.074Z,53.71
2022-08-07T01:45:15.926Z,53.58
2022-08-07T01:48:29.930Z,53.60
2022-08-07T01:50:32.804Z,53.39
2022-08-07T01:53:08.909Z,53.17
2022-08-07T01:55:44.672Z,53.33
2022-08-07T01:58:29.706Z,53.23
2022-08-07T02:01:09.838Z,53.38
2022-08-07T02:03:50.507Z,53.04
2022-08-07T02:06:31.558Z,52.88
2022-08-07T02:09:04.227Z,53.68
2022-08-07T02:12:02.889Z,53.32
2022-08-07T02:14:40.357Z,53.01
2022-08-07T02:17:09.494Z,53.18
2022-08-07T02:20:05.551Z,53.32
2022-08-07T02:22:30.649Z,53.25
2022-08-07T02:24:58.201Z,53.32
2022-08-07T02:27:34.354Z,52.96
2022-08-07T02:30:07.334Z,52.77
2022-08-07T02:32:39.617Z,52.62
2022-08-07T02:36:30.134Z,52.62
2022-08-07T02:38:14.715Z,52.81
2022-08-07T02:40:46.453Z,52.83
2022-08-07T02:43:15.509Z,52.53
2022-08-07T02:45:58.102Z,52.60
2022-08-07T02:48:26.251Z,52.73
2022-08-07T02:50:56.903Z,52.79
2022-08-07T02:53:30.858Z,52.89
2022-08-07T02:56:06.502Z,52.46
2022-08-07T02:58:47.471Z,52.59
2022-08-07T03:01:19.156Z,52.69
2022-08-07T03:04:06.888Z,52.54
2022-08-07T03:06:35.084Z,52.90
2022-08-07T03:09:03.677Z,52.70
2022-08-07T03:11:32.735Z,52.82
2022-08-07T03:14:01.608Z,53.19
2022-08-07T03:16:30.491Z,53.41
2022-08-07T03:18:59.301Z,53.20
2022-08-07T03:21:27.536Z,53.22
2022-08-07T03:24:19.695Z,53.06
2022-08-07T03:26:53.588Z,52.68
2022-08-07T03:29:28.214Z,53.82
2022-08-07T03:31:56.110Z,54.46
2022-08-07T03:34:27.276Z,53.89
2022-08-07T03:36:57.371Z,53.64
2022-08-07T03:39:59.655Z,54.84
2022-08-07T03:42:14.270Z,54.50
2022-08-07T03:44:41.686Z,54.07
2022-08-07T03:47:11.242Z,53.91
2022-08-07T03:49:47.764Z,53.98
2022-08-07T03:52:22.715Z,54.09
2022-08-07T03:55:06.771Z,53.34
2022-08-07T03:58:35.501Z,53.43
2022-08-07T04:00:30.560Z,54.10
2022-08-07T04:03:04.020Z,54.88
2022-08-07T04:05:40.332Z,54.53
2022-08-07T04:08:13.190Z,55.13
2022-08-07T04:10:54.276Z,54.16
2022-08-07T04:14:10.160Z,54.39
2022-08-07T04:16:19.753Z,54.88
2022-08-07T04:19:01.804Z,55.49
2022-08-07T04:21:33.316Z,57.07
2022-08-07T04:24:07.297Z,58.23
2022-08-07T04:26:34.828Z,58.96
2022-08-07T04:29:02.974Z,58.35
2022-08-07T04:31:38.933Z,59.97
2022-08-07T04:34:24.100Z,59.85
2022-08-07T04:36:54.779Z,60.63
2022-08-07T04:39:25.873Z,60.52
2022-08-07T04:41:52.756Z,61.16
2022-08-07T04:44:20.839Z,60.78
2022-08-07T04:47:09.585Z,60.42
2022-08-07T04:49:57.372Z,60.00
2022-08-07T04:53:09.180Z,59.23
2022-08-07T04:58:12.230Z,59.02
2022-08-07T05:00:11.270Z,59.63
2022-08-07T05:02:16.894Z,59.94
2022-08-07T05:05:52.014Z,57.64
2022-08-07T05:08:04.711Z,57.96
2022-08-07T05:10:37.474Z,56.58
2022-08-07T05:14:55.449Z,57.27
2022-08-07T05:16:04.499Z,55.86
2022-08-07T05:18:35.547Z,55.12
2022-08-07T05:21:04.723Z,55.73
2022-08-07T05:23:57.256Z,54.95
2022-08-07T05:26:27.510Z,55.38
2022-08-07T05:28:59.551Z,56.11
2022-08-07T05:31:38.616Z,54.46
2022-08-07T05:34:11.003Z,54.29
2022-08-07T05:36:39.770Z,55.37
2022-08-07T05:39:08.959Z,53.79
2022-08-07T05:42:01.750Z,54.45
2022-08-07T05:44:31.257Z,53.93
2022-08-07T05:47:01.227Z,51.82
2022-08-07T05:49:40.639Z,52.34
2022-08-07T05:52:11.456Z,53.10
2022-08-07T05:54:44.407Z,52.00
2022-08-07T05:57:21.298Z,51.17
2022-08-07T05:59:57.839Z,50.54
2022-08-07T06:02:29.707Z,50.89
2022-08-07T06:05:03.621Z,49.58
2022-08-07T06:08:14.818Z,49.77
2022-08-07T06:10:18.534Z,49.28
2022-08-07T06:12:46.139Z,48.91
2022-08-07T06:15:16.245Z,50.34
2022-08-07T06:17:53.620Z,50.86
2022-08-07T06:20:49.862Z,51.18
2022-08-07T06:23:46.765Z,50.66
2022-08-07T06:26:00.423Z,51.44
2022-08-07T06:28:28.282Z,50.13
2022-08-07T06:30:56.384Z,50.30
2022-08-07T06:33:25.519Z,49.93
2022-08-07T06:36:11.794Z,50.47
2022-08-07T06:38:39.215Z,49.37
2022-08-07T06:41:59.177Z,49.82
2022-08-07T06:44:13.228Z,49.07
2022-08-07T06:46:43.131Z,48.71
2022-08-07T06:49:20.563Z,48.69
2022-08-07T06:51:50.023Z,48.79
2022-08-07T06:55:31.763Z,49.19
2022-08-07T06:57:08.247Z,47.85
2022-08-07T07:00:13.059Z,47.50
2022-08-07T07:02:53.320Z,47.00
2022-08-07T07:06:03.413Z,46.56
2022-08-07T07:08:07.099Z,46.74
2022-08-07T07:10:36.755Z,45.05
2022-08-07T07:13:55.742Z,44.29
2022-08-07T07:16:09.666Z,43.56
2022-08-07T07:18:47.990Z,42.96
2022-08-07T07:21:27.278Z,43.98
2022-08-07T07:24:12.587Z,44.06
2022-08-07T07:26:41.108Z,44.43
2022-08-07T07:29:40.185Z,45.92
2022-08-07T07:32:12.791Z,44.80
2022-08-07T07:34:48.665Z,45.91
2022-08-07T07:37:44.277Z,44.45
2022-08-07T07:40:10.375Z,46.01
2022-08-07T07:42:50.916Z,44.62
2022-08-07T07:46:37.327Z,43.28
2022-08-07T07:48:35.072Z,43.35
2022-08-07T07:51:02.779Z,42.11
2022-08-07T07:53:51.873Z,41.34
2022-08-07T07:56:30.679Z,39.81
2022-08-07T07:59:02.047Z,41.20
2022-08-07T08:02:03.465Z,41.50
2022-08-07T08:04:20.143Z,41.11
2022-08-07T08:06:54.055Z,40.30
2022-08-07T08:09:24.295Z,39.84
2022-08-07T08:12:02.733Z,40.53
2022-08-07T08:14:36.406Z,40.34
2022-08-07T08:18:36.984Z,40.05
2022-08-07T08:20:18.779Z,37.93
2022-08-07T08:23:06.467Z,33.91
2022-08-07T08:25:56.777Z,33.41
2022-08-07T08:28:38.540Z,34.33
2022-08-07T08:31:14.647Z,33.71
2022-08-07T08:33:43.844Z,32.69
2022-08-07T08:36:18.534Z,33.81
2022-08-07T08:38:56.228Z,34.12
2022-08-07T08:41:58.220Z,33.42
2022-08-07T08:44:44.765Z,33.63
2022-08-07T08:48:16.791Z,33.08
2022-08-07T08:50:52.379Z,33.04
2022-08-07T08:53:47.144Z,32.85
2022-08-07T08:56:24.650Z,32.11
2022-08-07T08:59:24.679Z,30.27
2022-08-07T09:02:04.665Z,27.13
2022-08-07T09:04:38.342Z,25.28
2022-08-07T09:07:46.195Z,24.32
2022-08-07T09:10:32.447Z,21.19
2022-08-07T09:13:11.256Z,20.76
2022-08-07T09:16:24.459Z,22.49
2022-08-07T09:19:07.000Z,22.39
2022-08-07T09:22:10.176Z,21.87
2022-08-07T09:24:59.687Z,23.05
2022-08-07T09:27:59.796Z,22.36
2022-08-07T09:30:54.741Z,20.68
2022-08-07T09:33:52.746Z,18.18
2022-08-07T09:36:35.390Z,17.55
2022-08-07T09:39:53.093Z,16.55
2022-08-07T09:42:07.906Z,17.06
2022-08-07T09:47:27.737Z,19.03
2022-08-07T09:48:21.507Z,21.83
2022-08-07T09:52:15.482Z,22.65
2022-08-07T09:54:22.897Z,23.93
2022-08-07T09:57:12.921Z,24.85
2022-08-07T10:00:03.739Z,24.53
2022-08-07T10:02:33.832Z,26.34
2022-08-07T10:05:59.875Z,26.12
2022-08-07T10:08:55.438Z,25.82
2022-08-07T10:12:02.326Z,26.15
2022-08-07T10:14:55.315Z,25.98
2022-08-07T10:18:01.456Z,25.85
2022-08-07T10:20:50.381Z,23.89
2022-08-07T10:24:05.439Z,23.63
2022-08-07T10:26:27.663Z,23.76
2022-08-07T10:29:15.561Z,23.83
2022-08-07T10:31:58.030Z,23.84
2022-08-07T10:34:48.660Z,23.20
2022-08-07T10:37:59.934Z,22.43
2022-08-07T10:40:30.397Z,21.38
2022-08-07T10:43:34.429Z,22.07
2022-08-07T10:46:13.058Z,21.71
2022-08-07T10:48:59.766Z,20.96
2022-08-07T10:52:12.673Z,21.92
2022-08-07T10:54:53.533Z,24.14
2022-08-07T10:57:46.240Z,24.14
2022-08-07T11:00:36.415Z,23.26
2022-08-07T11:03:51.329Z,23.33
2022-08-07T11:06:26.947Z,22.68
2022-08-07T11:09:11.035Z,23.89
2022-08-07T11:11:51.801Z,24.45
2022-08-07T11:14:45.534Z,24.69
2022-08-07T11:17:43.400Z,25.06
2022-08-07T11:20:24.602Z,25.61
2022-08-07T11:23:26.185Z,26.24
2022-08-07T11:26:38.595Z,26.30
2022-08-07T11:29:42.004Z,26.22
2022-08-07T11:32:40.421Z,26.20
2022-08-07T11:35:26.783Z,27.03
2022-08-07T11:38:21.450Z,28.01
2022-08-07T11:40:59.480Z,29.82
2022-08-07T11:43:41.708Z,29.25
2022-08-07T11:46:41.981Z,28.55
2022-08-07T11:50:18.632Z,27.88
2022-08-07T11:52:37.700Z,28.63
2022-08-07T11:56:25.937Z,28.49
2022-08-07T11:58:49.683Z,29.65
2022-08-07T12:01:59.183Z,31.16
2022-08-07T12:04:40.132Z,31.19
2022-08-07T12:07:53.391Z,31.37
2022-08-07T12:10:34.970Z,30.76
2022-08-07T12:13:36.656Z,30.70
2022-08-07T12:16:10.852Z,29.31
2022-08-07T12:19:05.233Z,29.67
2022-08-07T12:22:37.547Z,30.40
2022-08-07T12:26:21.371Z,29.35
2022-08-07T12:28:31.329Z,28.32
2022-08-07T12:31:05.436Z,28.52
2022-08-07T12:34:00.788Z,28.82
2022-08-07T12:36:33.190Z,29.08
2022-08-07T12:39:41.176Z,28.83
2022-08-07T12:41:53.804Z,29.75
2022-08-07T12:44:21.710Z,29.55
2022-08-07T12:47:21.902Z,29.64
2022-08-07T12:50:39.015Z,29.14
2022-08-07T12:53:22.418Z,28.92
2022-08-07T12:56:03.933Z,28.75
2022-08-07T12:58:39.247Z,29.44
2022-08-07T13:01:17.192Z,29.25
2022-08-07T13:04:13.631Z,29.71
2022-08-07T13:08:14.096Z,29.23
2022-08-07T13:10:37.921Z,29.58
2022-08-07T13:13:48.647Z,29.35
2022-08-07T13:16:16.951Z,30.38
2022-08-07T13:19:34.870Z,29.39
2022-08-07T13:22:26.901Z,28.32
2022-08-07T13:25:02.379Z,28.17
2022-08-07T13:28:11.299Z,29.07
2022-08-07T13:30:43.466Z,28.52
2022-08-07T13:34:31.278Z,29.23
2022-08-07T13:36:49.126Z,28.54
2022-08-07T13:40:35.414Z,28.60
2022-08-07T13:42:41.120Z,29.37
2022-08-07T13:46:06.905Z,29.02
2022-08-07T13:48:07.789Z,29.07
2022-08-07T13:50:44.731Z,29.67
2022-08-07T13:53:35.944Z,29.80
2022-08-07T13:56:36.342Z,30.44
2022-08-07T13:59:15.744Z,30.51
2022-08-07T14:02:03.563Z,30.65
2022-08-07T14:04:36.713Z,30.79
2022-08-07T14:07:09.721Z,30.36
2022-08-07T14:10:00.883Z,30.83
2022-08-07T14:12:49.329Z,30.68
2022-08-07T14:15:28.636Z,29.78
2022-08-07T14:18:57.100Z,29.29
2022-08-07T14:22:03.093Z,30.00
2022-08-07T14:24:33.513Z,30.28
2022-08-07T14:28:09.446Z,30.70
2022-08-07T14:30:09.587Z,31.19
2022-08-07T14:32:51.278Z,31.52
2022-08-07T14:35:44.852Z,31.76
2022-08-07T14:41:12.463Z,31.64
2022-08-07T14:43:57.743Z,31.61
2022-08-07T14:46:31.078Z,31.78
2022-08-07T14:49:17.242Z,31.20
2022-08-07T14:52:03.730Z,31.12
2022-08-07T14:54:35.815Z,31.23
2022-08-07T14:57:28.838Z,31.90
2022-08-07T15:00:06.645Z,31.82
2022-08-07T15:02:35.213Z,31.99
2022-08-07T15:05:04.795Z,31.87
2022-08-07T15:10:40.602Z,31.52
2022-08-07T15:13:35.966Z,31.98
2022-08-07T15:16:20.162Z,31.32
2022-08-07T15:19:05.620Z,32.00
2022-08-07T15:25:12.790Z,30.91
2022-08-07T15:27:24.993Z,31.25
2022-08-07T15:30:10.334Z,30.94
2022-08-07T15:32:50.675Z,30.32
2022-08-07T15:36:01.826Z,30.65
2022-08-07T15:41:23.357Z,30.33
2022-08-07T15:44:07.031Z,30.76
2022-08-07T15:46:38.507Z,31.19
2022-08-07T15:49:16.283Z,31.25
2022-08-07T15:54:34.125Z,31.72
2022-08-07T15:57:03.127Z,32.49
2022-08-07T15:59:39.045Z,32.07
2022-08-07T16:02:08.499Z,32.05
2022-08-07T16:04:37.939Z,31.99
2022-08-07T16:08:32.211Z,32.46
2022-08-07T16:10:05.778Z,32.44
2022-08-07T16:13:17.969Z,32.77
2022-08-07T16:16:47.899Z,32.13
2022-08-07T16:19:41.802Z,32.63
2022-08-07T16:22:55.692Z,33.01
2022-08-07T16:25:52.513Z,33.61
2022-08-07T16:30:06.405Z,33.75
2022-08-07T16:31:50.199Z,34.06
2022-08-07T16:34:09.984Z,33.23
2022-08-07T16:37:01.720Z,33.13
2022-08-07T16:39:49.289Z,33.22
2022-08-07T16:42:53.273Z,33.63
2022-08-07T16:46:40.621Z,33.81
2022-08-07T16:49:10.405Z,34.14
2022-08-07T16:51:57.512Z,34.07
2022-08-07T16:54:55.618Z,34.12
2022-08-07T16:58:01.843Z,34.35
2022-08-07T17:00:39.199Z,34.81
2022-08-07T17:03:18.659Z,34.45
2022-08-07T17:06:30.300Z,34.53
2022-08-07T17:09:13.941Z,34.97
2022-08-07T17:12:04.017Z,35.41
2022-08-07T17:14:56.380Z,35.30
2022-08-07T17:17:44.313Z,35.40
2022-08-07T17:20:29.927Z,35.67
2022-08-07T17:22:57.542Z,35.49
2022-08-07T17:25:47.653Z,35.73
2022-08-07T17:28:31.203Z,35.73
2022-08-07T17:31:16.061Z,35.90
2022-08-07T17:34:15.188Z,35.94
2022-08-07T17:36:57.634Z,36.55
2022-08-07T17:40:09.065Z,36.78
2022-08-07T17:42:59.292Z,36.69
2022-08-07T17:45:42.225Z,37.02
2022-08-07T17:48:30.823Z,36.87
2022-08-07T17:51:21.614Z,36.63
2022-08-07T17:54:06.571Z,36.95
2022-08-07T17:56:54.465Z,37.17
2022-08-07T17:59:25.956Z,37.40
2022-08-07T18:02:11.393Z,37.00
2022-08-07T18:05:02.327Z,37.57
2022-08-07T18:08:04.801Z,37.66
2022-08-07T18:12:08.420Z,37.38
2022-08-07T18:13:54.023Z,37.04
2022-08-07T18:16:35.001Z,37.11
2022-08-07T18:21:09.541Z,37.47
2022-08-07T18:22:11.420Z,37.37
2022-08-07T18:24:42.045Z,37.58
2022-08-07T18:27:39.086Z,37.40
2022-08-07T18:30:31.169Z,37.88
2022-08-07T18:33:15.455Z,37.60
2022-08-07T18:36:12.731Z,38.11
2022-08-07T18:38:57.914Z,38.55
2022-08-07T18:41:47.339Z,37.95
2022-08-07T18:44:27.309Z,38.32
2022-08-07T18:47:20.955Z,38.16
2022-08-07T18:50:37.778Z,38.04
2022-08-07T18:53:13.165Z,38.73
2022-08-07T18:56:08.712Z,38.28
2022-08-07T18:59:10.517Z,39.14
2022-08-07T19:02:33.947Z,39.41
2022-08-07T19:05:15.823Z,39.50
2022-08-07T19:08:10.863Z,40.17
2022-08-07T19:10:51.404Z,40.64
2022-08-07T19:13:45.112Z,40.82
2022-08-07T19:17:04.397Z,41.15
2022-08-07T19:19:49.326Z,41.37
2022-08-07T19:22:30.749Z,41.31
2022-08-07T19:25:06.551Z,41.95
2022-08-07T19:28:57.062Z,41.69
2022-08-07T19:31:05.189Z,42.01
2022-08-07T19:33:18.852Z,42.80
2022-08-07T19:36:01.779Z,42.38
2022-08-07T19:38:32.283Z,42.15
2022-08-07T19:41:00.640Z,42.30
2022-08-07T19:43:50.005Z,41.48
2022-08-07T19:46:22.451Z,41.78
2022-08-07T19:49:02.659Z,40.96
2022-08-07T19:51:52.251Z,40.89
2022-08-07T19:54:30.946Z,41.67
2022-08-07T19:58:00.721Z,39.64
2022-08-07T19:59:55.904Z,39.53
2022-08-07T20:02:52.211Z,38.58
2022-08-07T20:05:25.327Z,38.99
2022-08-07T20:07:59.492Z,38.31
2022-08-07T20:10:55.116Z,37.41
2022-08-07T20:13:38.492Z,37.52
2022-08-07T20:16:32.180Z,37.19
2022-08-07T20:18:59.262Z,37.81
2022-08-07T20:21:42.144Z,38.98
2022-08-07T20:24:20.599Z,39.23
2022-08-07T20:26:52.289Z,39.33
2022-08-07T20:29:48.031Z,39.85
2022-08-07T20:32:25.526Z,40.48
2022-08-07T20:34:56.107Z,40.87
2022-08-07T20:37:37.069Z,41.03
2022-08-07T20:40:32.319Z,41.03
2022-08-07T20:43:03.347Z,41.31
2022-08-07T20:46:27.061Z,41.18
2022-08-07T20:48:30.571Z,41.20
2022-08-07T20:51:04.056Z,41.50
2022-08-07T20:54:03.222Z,41.37
2022-08-07T20:56:28.926Z,41.64
2022-08-07T20:59:01.500Z,41.86
2022-08-07T21:01:29.545Z,41.51
2022-08-07T21:04:22.755Z,41.38
2022-08-07T21:06:55.291Z,41.55
2022-08-07T21:09:51.636Z,41.52
2022-08-07T21:12:28.916Z,41.34
2022-08-07T21:15:02.484Z,42.54
2022-08-07T21:18:03.695Z,42.58
2022-08-07T21:20:26.896Z,42.44
2022-08-07T21:22:59.124Z,42.98
2022-08-07T21:26:01.489Z,42.94
2022-08-07T21:28:51.744Z,42.84
2022-08-07T21:32:47.368Z,43.06
2022-08-07T21:35:02.378Z,42.88
2022-08-07T21:37:58.289Z,43.65
2022-08-07T21:40:38.130Z,43.73
2022-08-07T21:43:10.773Z,43.81
2022-08-07T21:46:09.664Z,44.14
2022-08-07T21:49:03.313Z,44.17
2022-08-07T21:51:54.526Z,44.38
2022-08-07T21:54:34.426Z,44.18
2022-08-07T21:57:39.416Z,43.91
2022-08-07T22:00:22.809Z,43.54
2022-08-07T22:02:55.749Z,43.74
2022-08-07T22:05:44.264Z,43.97
2022-08-07T22:08:18.906Z,43.75
2022-08-07T22:10:50.982Z,44.03
2022-08-07T22:13:24.190Z,44.05
2022-08-07T22:16:38.900Z,44.45
2022-08-07T22:19:30.028Z,44.19
2022-08-07T22:22:20.803Z,44.38
2022-08-07T22:25:08.667Z,43.91
2022-08-07T22:28:29.634Z,44.47
2022-08-07T22:30:58.570Z,44.74
2022-08-07T22:33:52.478Z,45.13
2022-08-07T22:36:27.266Z,45.07
2022-08-07T22:39:07.459Z,44.49
2022-08-07T22:42:04.095Z,44.52
2022-08-07T22:44:34.489Z,44.39
2022-08-07T22:47:23.136Z,44.37
2022-08-07T22:49:54.748Z,44.63
2022-08-07T22:52:40.005Z,44.77
2022-08-07T22:55:37.133Z,45.06
2022-08-07T22:58:28.168Z,45.53
2022-08-07T23:01:49.812Z,45.43
2022-08-07T23:04:57.874Z,44.99
2022-08-07T23:07:44.806Z,45.10
2022-08-07T23:10:36.412Z,45.24
2022-08-07T23:13:12.079Z,45.35
2022-08-07T23:16:05.495Z,45.56
2022-08-07T23:19:39.021Z,45.83
2022-08-07T23:22:59.222Z,46.54
2022-08-07T23:25:44.231Z,46.77
2022-08-07T23:28:29.096Z,47.21
2022-08-07T23:32:49.325Z,47.30
2022-08-07T23:34:34.806Z,47.23
2022-08-07T23:37:37.387Z,47.93
2022-08-07T23:40:33.257Z,47.60
2022-08-07T23:43:21.003Z,47.44
2022-08-07T23:46:27.169Z,48.03
2022-08-07T23:49:19.498Z,47.91
2022-08-07T23:53:00.300Z,48.51
2022-08-07T23:54:53.097Z,48.55
2022-08-07T23:57:25.280Z,47.97
